sensor_id;sensor_type;location;lat;lon;timestamp;P1;durP1;ratioP1;P2;durP2;ratioP2
74679;SDS011;63211;48.548;2.704;2022-10-16T00:01:42;0.43;;;0.17;;
74679;SDS011;63211;48.548;2.704;2022-10-16T00:04:09;0.40;;;0.20;;
74679;SDS011;63211;48.548;2.704;2022-10-16T00:06:35;3.03;;;0.40;;
74679;SDS011;63211;48.548;2.704;2022-10-16T00:09:04;3.38;;;0.10;;
74679;SDS011;63211;48.548;2.704;2022-10-16T00:11:32;0.40;;;0.20;;
74679;SDS011;63211;48.548;2.704;2022-10-16T00:14:02;0.82;;;0.20;;
74679;SDS011;63211;48.548;2.704;2022-10-16T00:16:30;0.30;;;0.20;;
74679;SDS011;63211;48.548;2.704;2022-10-16T00:18:57;0.20;;;0.20;;
74679;SDS011;63211;48.548;2.704;2022-10-16T00:21:24;1.13;;;0.20;;
74679;SDS011;63211;48.548;2.704;2022-10-16T00:23:53;0.28;;;0.20;;
74679;SDS011;63211;48.548;2.704;2022-10-16T00:26:21;1.05;;;0.22;;
74679;SDS011;63211;48.548;2.704;2022-10-16T00:28:49;0.47;;;0.15;;
74679;SDS011;63211;48.548;2.704;2022-10-16T00:31:17;0.30;;;0.22;;
74679;SDS011;63211;48.548;2.704;2022-10-16T00:33:44;1.95;;;0.20;;
74679;SDS011;63211;48.548;2.704;2022-10-16T00:36:12;0.28;;;0.10;;
74679;SDS011;63211;48.548;2.704;2022-10-16T00:38:40;0.30;;;0.10;;
74679;SDS011;63211;48.548;2.704;2022-10-16T00:41:09;0.15;;;0.00;;
74679;SDS011;63211;48.548;2.704;2022-10-16T00:43:40;1.40;;;0.15;;
74679;SDS011;63211;48.548;2.704;2022-10-16T00:46:10;0.28;;;0.10;;
74679;SDS011;63211;48.548;2.704;2022-10-16T00:48:41;0.20;;;0.10;;
74679;SDS011;63211;48.548;2.704;2022-10-16T00:51:11;0.63;;;0.15;;
74679;SDS011;63211;48.548;2.704;2022-10-16T00:53:38;0.50;;;0.20;;
74679;SDS011;63211;48.548;2.704;2022-10-16T00:56:05;0.10;;;0.00;;
74679;SDS011;63211;48.548;2.704;2022-10-16T00:58:32;0.43;;;0.08;;
74679;SDS011;63211;48.548;2.704;2022-10-16T01:01:00;0.30;;;0.20;;
74679;SDS011;63211;48.548;2.704;2022-10-16T01:03:27;1.17;;;0.20;;
74679;SDS011;63211;48.548;2.704;2022-10-16T01:05:59;0.32;;;0.10;;
74679;SDS011;63211;48.548;2.704;2022-10-16T01:08:37;0.45;;;0.10;;
74679;SDS011;63211;48.548;2.704;2022-10-16T01:11:10;1.60;;;0.15;;
74679;SDS011;63211;48.548;2.704;2022-10-16T01:13:45;0.10;;;0.00;;
74679;SDS011;63211;48.548;2.704;2022-10-16T01:16:17;0.30;;;0.10;;
74679;SDS011;63211;48.548;2.704;2022-10-16T01:18:57;0.40;;;0.15;;
74679;SDS011;63211;48.548;2.704;2022-10-16T01:21:29;0.00;;;0.00;;
74679;SDS011;63211;48.548;2.704;2022-10-16T01:24:00;0.32;;;0.00;;
74679;SDS011;63211;48.548;2.704;2022-10-16T01:26:37;0.28;;;0.10;;
74679;SDS011;63211;48.548;2.704;2022-10-16T01:29:18;1.17;;;0.10;;
74679;SDS011;63211;48.548;2.704;2022-10-16T01:31:50;0.40;;;0.10;;
74679;SDS011;63211;48.548;2.704;2022-10-16T01:34:24;0.50;;;0.10;;
74679;SDS011;63211;48.548;2.704;2022-10-16T01:37:00;0.05;;;0.00;;
74679;SDS011;63211;48.548;2.704;2022-10-16T01:39:31;0.63;;;0.10;;
74679;SDS011;63211;48.548;2.704;2022-10-16T01:42:04;1.33;;;0.10;;
74679;SDS011;63211;48.548;2.704;2022-10-16T01:44:35;0.22;;;0.00;;
74679;SDS011;63211;48.548;2.704;2022-10-16T01:47:05;0.43;;;0.00;;
74679;SDS011;63211;48.548;2.704;2022-10-16T01:49:36;0.30;;;0.00;;
74679;SDS011;63211;48.548;2.704;2022-10-16T01:52:05;0.50;;;0.10;;
74679;SDS011;63211;48.548;2.704;2022-10-16T01:54:35;0.30;;;0.10;;
74679;SDS011;63211;48.548;2.704;2022-10-16T01:57:04;2.08;;;0.10;;
74679;SDS011;63211;48.548;2.704;2022-10-16T01:59:35;0.30;;;0.10;;
74679;SDS011;63211;48.548;2.704;2022-10-16T02:02:09;0.10;;;0.00;;
74679;SDS011;63211;48.548;2.704;2022-10-16T02:04:38;0.32;;;0.20;;
74679;SDS011;63211;48.548;2.704;2022-10-16T02:09:35;0.00;;;0.00;;
74679;SDS011;63211;48.548;2.704;2022-10-16T02:12:03;0.00;;;0.00;;
74679;SDS011;63211;48.548;2.704;2022-10-16T02:14:35;0.00;;;0.00;;
74679;SDS011;63211;48.548;2.704;2022-10-16T02:17:10;0.32;;;0.00;;
74679;SDS011;63211;48.548;2.704;2022-10-16T02:19:38;0.10;;;0.00;;
74679;SDS011;63211;48.548;2.704;2022-10-16T02:22:05;1.02;;;0.00;;
74679;SDS011;63211;48.548;2.704;2022-10-16T02:24:37;0.10;;;0.00;;
74679;SDS011;63211;48.548;2.704;2022-10-16T02:27:10;0.10;;;0.00;;
74679;SDS011;63211;48.548;2.704;2022-10-16T02:29:42;0.00;;;0.00;;
74679;SDS011;63211;48.548;2.704;2022-10-16T02:32:15;0.10;;;0.08;;
74679;SDS011;63211;48.548;2.704;2022-10-16T02:37:13;0.15;;;0.05;;
74679;SDS011;63211;48.548;2.704;2022-10-16T02:39:40;0.47;;;0.10;;
74679;SDS011;63211;48.548;2.704;2022-10-16T02:42:09;0.15;;;0.00;;
74679;SDS011;63211;48.548;2.704;2022-10-16T02:44:36;0.52;;;0.10;;
74679;SDS011;63211;48.548;2.704;2022-10-16T02:47:04;0.10;;;0.10;;
74679;SDS011;63211;48.548;2.704;2022-10-16T02:49:30;0.20;;;0.05;;
74679;SDS011;63211;48.548;2.704;2022-10-16T02:51:57;1.50;;;0.10;;
74679;SDS011;63211;48.548;2.704;2022-10-16T02:54:24;0.03;;;0.00;;
74679;SDS011;63211;48.548;2.704;2022-10-16T02:56:50;0.38;;;0.17;;
74679;SDS011;63211;48.548;2.704;2022-10-16T02:59:17;0.17;;;0.10;;
74679;SDS011;63211;48.548;2.704;2022-10-16T03:01:44;0.10;;;0.00;;
74679;SDS011;63211;48.548;2.704;2022-10-16T03:04:11;0.00;;;0.00;;
74679;SDS011;63211;48.548;2.704;2022-10-16T03:06:38;1.75;;;0.00;;
74679;SDS011;63211;48.548;2.704;2022-10-16T03:09:05;0.10;;;0.10;;
74679;SDS011;63211;48.548;2.704;2022-10-16T03:11:31;0.08;;;0.00;;
74679;SDS011;63211;48.548;2.704;2022-10-16T03:13:58;0.60;;;0.10;;
74679;SDS011;63211;48.548;2.704;2022-10-16T03:16:24;0.10;;;0.00;;
74679;SDS011;63211;48.548;2.704;2022-10-16T03:18:51;0.80;;;0.10;;
74679;SDS011;63211;48.548;2.704;2022-10-16T03:21:19;0.00;;;0.00;;
74679;SDS011;63211;48.548;2.704;2022-10-16T03:23:45;0.00;;;0.00;;
74679;SDS011;63211;48.548;2.704;2022-10-16T03:26:12;0.03;;;0.00;;
74679;SDS011;63211;48.548;2.704;2022-10-16T03:28:39;0.10;;;0.00;;
74679;SDS011;63211;48.548;2.704;2022-10-16T03:31:05;0.28;;;0.10;;
74679;SDS011;63211;48.548;2.704;2022-10-16T03:33:33;0.08;;;0.00;;
74679;SDS011;63211;48.548;2.704;2022-10-16T03:36:00;0.20;;;0.03;;
74679;SDS011;63211;48.548;2.704;2022-10-16T03:38:28;0.30;;;0.00;;
74679;SDS011;63211;48.548;2.704;2022-10-16T03:40:54;0.35;;;0.10;;
74679;SDS011;63211;48.548;2.704;2022-10-16T03:43:21;0.88;;;0.08;;
74679;SDS011;63211;48.548;2.704;2022-10-16T03:45:49;0.10;;;0.00;;
74679;SDS011;63211;48.548;2.704;2022-10-16T03:48:16;0.15;;;0.00;;
74679;SDS011;63211;48.548;2.704;2022-10-16T03:50:43;0.20;;;0.10;;
74679;SDS011;63211;48.548;2.704;2022-10-16T03:53:09;0.00;;;0.00;;
74679;SDS011;63211;48.548;2.704;2022-10-16T03:55:37;0.10;;;0.00;;
74679;SDS011;63211;48.548;2.704;2022-10-16T03:58:04;0.25;;;0.10;;
74679;SDS011;63211;48.548;2.704;2022-10-16T04:00:31;0.20;;;0.00;;
74679;SDS011;63211;48.548;2.704;2022-10-16T04:02:57;0.30;;;0.20;;
74679;SDS011;63211;48.548;2.704;2022-10-16T04:05:24;0.40;;;0.00;;
74679;SDS011;63211;48.548;2.704;2022-10-16T04:07:50;0.63;;;0.05;;
74679;SDS011;63211;48.548;2.704;2022-10-16T04:10:17;1.20;;;0.10;;
74679;SDS011;63211;48.548;2.704;2022-10-16T04:12:45;0.10;;;0.00;;
74679;SDS011;63211;48.548;2.704;2022-10-16T04:15:12;0.20;;;0.00;;
74679;SDS011;63211;48.548;2.704;2022-10-16T04:17:38;0.17;;;0.00;;
74679;SDS011;63211;48.548;2.704;2022-10-16T04:20:05;0.13;;;0.00;;
74679;SDS011;63211;48.548;2.704;2022-10-16T04:22:32;0.00;;;0.00;;
74679;SDS011;63211;48.548;2.704;2022-10-16T04:24:59;0.03;;;0.00;;
74679;SDS011;63211;48.548;2.704;2022-10-16T04:27:25;0.13;;;0.00;;
74679;SDS011;63211;48.548;2.704;2022-10-16T04:29:54;0.30;;;0.00;;
74679;SDS011;63211;48.548;2.704;2022-10-16T04:32:21;0.25;;;0.00;;
74679;SDS011;63211;48.548;2.704;2022-10-16T04:34:47;0.00;;;0.00;;
74679;SDS011;63211;48.548;2.704;2022-10-16T04:37:14;0.00;;;0.00;;
74679;SDS011;63211;48.548;2.704;2022-10-16T04:39:41;0.10;;;0.00;;
74679;SDS011;63211;48.548;2.704;2022-10-16T04:42:07;0.10;;;0.00;;
74679;SDS011;63211;48.548;2.704;2022-10-16T04:44:34;0.40;;;0.10;;
74679;SDS011;63211;48.548;2.704;2022-10-16T04:47:02;0.30;;;0.00;;
74679;SDS011;63211;48.548;2.704;2022-10-16T04:49:29;0.20;;;0.00;;
74679;SDS011;63211;48.548;2.704;2022-10-16T04:51:56;0.10;;;0.03;;
74679;SDS011;63211;48.548;2.704;2022-10-16T04:54:22;3.55;;;0.10;;
74679;SDS011;63211;48.548;2.704;2022-10-16T04:56:49;0.00;;;0.00;;
74679;SDS011;63211;48.548;2.704;2022-10-16T04:59:17;0.00;;;0.00;;
74679;SDS011;63211;48.548;2.704;2022-10-16T05:01:44;0.65;;;0.03;;
74679;SDS011;63211;48.548;2.704;2022-10-16T05:04:12;0.10;;;0.00;;
74679;SDS011;63211;48.548;2.704;2022-10-16T05:06:40;0.10;;;0.10;;
74679;SDS011;63211;48.548;2.704;2022-10-16T05:09:07;0.08;;;0.00;;
74679;SDS011;63211;48.548;2.704;2022-10-16T05:11:34;0.10;;;0.00;;
74679;SDS011;63211;48.548;2.704;2022-10-16T05:14:01;0.10;;;0.00;;
74679;SDS011;63211;48.548;2.704;2022-10-16T05:16:28;0.10;;;0.00;;
74679;SDS011;63211;48.548;2.704;2022-10-16T05:18:55;0.00;;;0.00;;
74679;SDS011;63211;48.548;2.704;2022-10-16T05:21:23;0.50;;;0.10;;
74679;SDS011;63211;48.548;2.704;2022-10-16T05:23:50;0.20;;;0.00;;
74679;SDS011;63211;48.548;2.704;2022-10-16T05:26:18;0.90;;;0.00;;
74679;SDS011;63211;48.548;2.704;2022-10-16T05:28:45;1.02;;;0.03;;
74679;SDS011;63211;48.548;2.704;2022-10-16T05:31:12;0.25;;;0.10;;
74679;SDS011;63211;48.548;2.704;2022-10-16T05:33:39;0.10;;;0.00;;
74679;SDS011;63211;48.548;2.704;2022-10-16T05:36:06;0.80;;;0.08;;
74679;SDS011;63211;48.548;2.704;2022-10-16T05:38:36;0.17;;;0.10;;
74679;SDS011;63211;48.548;2.704;2022-10-16T05:41:04;0.00;;;0.00;;
74679;SDS011;63211;48.548;2.704;2022-10-16T05:43:31;0.60;;;0.10;;
74679;SDS011;63211;48.548;2.704;2022-10-16T05:45:59;0.30;;;0.00;;
74679;SDS011;63211;48.548;2.704;2022-10-16T05:48:26;0.17;;;0.00;;
74679;SDS011;63211;48.548;2.704;2022-10-16T05:50:57;0.40;;;0.10;;
74679;SDS011;63211;48.548;2.704;2022-10-16T05:53:24;0.10;;;0.00;;
74679;SDS011;63211;48.548;2.704;2022-10-16T05:55:53;0.17;;;0.00;;
74679;SDS011;63211;48.548;2.704;2022-10-16T05:58:20;0.00;;;0.00;;
74679;SDS011;63211;48.548;2.704;2022-10-16T06:00:52;0.32;;;0.10;;
74679;SDS011;63211;48.548;2.704;2022-10-16T06:03:19;0.20;;;0.00;;
74679;SDS011;63211;48.548;2.704;2022-10-16T06:05:46;0.32;;;0.10;;
74679;SDS011;63211;48.548;2.704;2022-10-16T06:08:12;0.00;;;0.00;;
74679;SDS011;63211;48.548;2.704;2022-10-16T06:10:39;0.08;;;0.00;;
74679;SDS011;63211;48.548;2.704;2022-10-16T06:13:07;0.20;;;0.00;;
74679;SDS011;63211;48.548;2.704;2022-10-16T06:15:33;0.28;;;0.00;;
74679;SDS011;63211;48.548;2.704;2022-10-16T06:18:00;0.00;;;0.00;;
74679;SDS011;63211;48.548;2.704;2022-10-16T06:20:26;0.10;;;0.05;;
74679;SDS011;63211;48.548;2.704;2022-10-16T06:22:53;0.28;;;0.00;;
74679;SDS011;63211;48.548;2.704;2022-10-16T06:25:20;0.20;;;0.10;;
74679;SDS011;63211;48.548;2.704;2022-10-16T06:27:46;1.33;;;0.10;;
74679;SDS011;63211;48.548;2.704;2022-10-16T06:30:14;0.10;;;0.00;;
74679;SDS011;63211;48.548;2.704;2022-10-16T06:32:41;0.20;;;0.00;;
74679;SDS011;63211;48.548;2.704;2022-10-16T06:35:08;0.05;;;0.00;;
74679;SDS011;63211;48.548;2.704;2022-10-16T06:37:34;0.20;;;0.10;;
74679;SDS011;63211;48.548;2.704;2022-10-16T06:40:01;0.38;;;0.10;;
74679;SDS011;63211;48.548;2.704;2022-10-16T06:42:29;0.40;;;0.15;;
74679;SDS011;63211;48.548;2.704;2022-10-16T06:44:56;0.05;;;0.00;;
74679;SDS011;63211;48.548;2.704;2022-10-16T06:47:24;0.80;;;0.03;;
74679;SDS011;63211;48.548;2.704;2022-10-16T06:49:51;0.20;;;0.00;;
74679;SDS011;63211;48.548;2.704;2022-10-16T06:52:17;0.22;;;0.00;;
74679;SDS011;63211;48.548;2.704;2022-10-16T06:54:44;0.13;;;0.10;;
74679;SDS011;63211;48.548;2.704;2022-10-16T06:57:10;0.30;;;0.10;;
74679;SDS011;63211;48.548;2.704;2022-10-16T06:59:37;0.10;;;0.00;;
74679;SDS011;63211;48.548;2.704;2022-10-16T07:02:03;1.17;;;0.10;;
74679;SDS011;63211;48.548;2.704;2022-10-16T07:04:33;0.25;;;0.03;;
74679;SDS011;63211;48.548;2.704;2022-10-16T07:07:00;0.03;;;0.00;;
74679;SDS011;63211;48.548;2.704;2022-10-16T07:09:26;0.35;;;0.05;;
74679;SDS011;63211;48.548;2.704;2022-10-16T07:11:53;0.15;;;0.10;;
74679;SDS011;63211;48.548;2.704;2022-10-16T07:14:20;0.52;;;0.10;;
74679;SDS011;63211;48.548;2.704;2022-10-16T07:16:48;0.32;;;0.10;;
74679;SDS011;63211;48.548;2.704;2022-10-16T07:19:14;0.30;;;0.03;;
74679;SDS011;63211;48.548;2.704;2022-10-16T07:21:44;0.22;;;0.10;;
74679;SDS011;63211;48.548;2.704;2022-10-16T07:24:11;0.22;;;0.10;;
74679;SDS011;63211;48.548;2.704;2022-10-16T07:26:40;0.17;;;0.05;;
74679;SDS011;63211;48.548;2.704;2022-10-16T07:29:08;0.30;;;0.20;;
74679;SDS011;63211;48.548;2.704;2022-10-16T07:31:39;0.38;;;0.20;;
74679;SDS011;63211;48.548;2.704;2022-10-16T07:34:06;0.22;;;0.10;;
74679;SDS011;63211;48.548;2.704;2022-10-16T07:36:33;0.20;;;0.00;;
74679;SDS011;63211;48.548;2.704;2022-10-16T07:39:01;0.70;;;0.20;;
74679;SDS011;63211;48.548;2.704;2022-10-16T07:41:28;0.30;;;0.10;;
74679;SDS011;63211;48.548;2.704;2022-10-16T07:43:57;0.57;;;0.20;;
74679;SDS011;63211;48.548;2.704;2022-10-16T07:46:26;1.35;;;0.10;;
74679;SDS011;63211;48.548;2.704;2022-10-16T07:48:53;0.20;;;0.10;;
74679;SDS011;63211;48.548;2.704;2022-10-16T07:51:21;0.40;;;0.20;;
74679;SDS011;63211;48.548;2.704;2022-10-16T07:53:48;1.17;;;0.20;;
74679;SDS011;63211;48.548;2.704;2022-10-16T07:56:17;0.28;;;0.10;;
74679;SDS011;63211;48.548;2.704;2022-10-16T07:58:45;0.20;;;0.10;;
74679;SDS011;63211;48.548;2.704;2022-10-16T08:01:14;0.40;;;0.20;;
74679;SDS011;63211;48.548;2.704;2022-10-16T08:03:42;1.00;;;0.10;;
74679;SDS011;63211;48.548;2.704;2022-10-16T08:06:09;3.65;;;0.20;;
74679;SDS011;63211;48.548;2.704;2022-10-16T08:08:36;0.38;;;0.17;;
74679;SDS011;63211;48.548;2.704;2022-10-16T08:11:03;0.50;;;0.22;;
74679;SDS011;63211;48.548;2.704;2022-10-16T08:13:31;0.68;;;0.20;;
74679;SDS011;63211;48.548;2.704;2022-10-16T08:15:58;0.90;;;0.10;;
74679;SDS011;63211;48.548;2.704;2022-10-16T08:18:25;0.50;;;0.10;;
74679;SDS011;63211;48.548;2.704;2022-10-16T08:20:55;0.50;;;0.05;;
74679;SDS011;63211;48.548;2.704;2022-10-16T08:23:22;0.25;;;0.10;;
74679;SDS011;63211;48.548;2.704;2022-10-16T08:25:50;0.28;;;0.10;;
74679;SDS011;63211;48.548;2.704;2022-10-16T08:28:18;0.45;;;0.10;;
74679;SDS011;63211;48.548;2.704;2022-10-16T08:30:46;1.73;;;0.20;;
74679;SDS011;63211;48.548;2.704;2022-10-16T08:33:12;0.40;;;0.20;;
74679;SDS011;63211;48.548;2.704;2022-10-16T08:35:39;0.40;;;0.10;;
74679;SDS011;63211;48.548;2.704;2022-10-16T08:38:06;0.47;;;0.10;;
74679;SDS011;63211;48.548;2.704;2022-10-16T08:40:33;0.45;;;0.20;;
74679;SDS011;63211;48.548;2.704;2022-10-16T08:43:06;0.30;;;0.10;;
74679;SDS011;63211;48.548;2.704;2022-10-16T08:45:44;0.52;;;0.20;;
74679;SDS011;63211;48.548;2.704;2022-10-16T08:48:25;0.90;;;0.20;;
74679;SDS011;63211;48.548;2.704;2022-10-16T08:50:57;0.73;;;0.17;;
74679;SDS011;63211;48.548;2.704;2022-10-16T08:53:25;1.08;;;0.25;;
74679;SDS011;63211;48.548;2.704;2022-10-16T08:55:56;0.57;;;0.20;;
74679;SDS011;63211;48.548;2.704;2022-10-16T08:58:26;0.50;;;0.10;;
74679;SDS011;63211;48.548;2.704;2022-10-16T09:00:56;0.85;;;0.20;;
74679;SDS011;63211;48.548;2.704;2022-10-16T09:03:35;0.30;;;0.10;;
74679;SDS011;63211;48.548;2.704;2022-10-16T09:06:17;0.28;;;0.13;;
74679;SDS011;63211;48.548;2.704;2022-10-16T09:08:59;0.63;;;0.20;;
74679;SDS011;63211;48.548;2.704;2022-10-16T09:11:38;0.40;;;0.10;;
74679;SDS011;63211;48.548;2.704;2022-10-16T09:14:18;1.45;;;0.10;;
74679;SDS011;63211;48.548;2.704;2022-10-16T09:17:06;0.38;;;0.10;;
74679;SDS011;63211;48.548;2.704;2022-10-16T09:19:46;0.47;;;0.10;;
74679;SDS011;63211;48.548;2.704;2022-10-16T09:22:19;2.15;;;0.30;;
74679;SDS011;63211;48.548;2.704;2022-10-16T09:24:51;4.18;;;0.30;;
74679;SDS011;63211;48.548;2.704;2022-10-16T09:27:17;0.73;;;0.30;;
74679;SDS011;63211;48.548;2.704;2022-10-16T09:29:44;0.40;;;0.13;;
74679;SDS011;63211;48.548;2.704;2022-10-16T09:32:13;1.40;;;0.20;;
74679;SDS011;63211;48.548;2.704;2022-10-16T09:34:45;1.10;;;0.28;;
74679;SDS011;63211;48.548;2.704;2022-10-16T09:37:14;3.40;;;0.25;;
74679;SDS011;63211;48.548;2.704;2022-10-16T09:39:44;4.80;;;0.30;;
74679;SDS011;63211;48.548;2.704;2022-10-16T09:42:13;1.05;;;0.40;;
74679;SDS011;63211;48.548;2.704;2022-10-16T09:44:42;0.70;;;0.10;;
74679;SDS011;63211;48.548;2.704;2022-10-16T09:47:15;0.80;;;0.20;;
74679;SDS011;63211;48.548;2.704;2022-10-16T09:49:51;0.32;;;0.17;;
74679;SDS011;63211;48.548;2.704;2022-10-16T09:52:20;0.47;;;0.20;;
74679;SDS011;63211;48.548;2.704;2022-10-16T09:54:51;0.80;;;0.22;;
74679;SDS011;63211;48.548;2.704;2022-10-16T09:57:19;0.30;;;0.10;;
74679;SDS011;63211;48.548;2.704;2022-10-16T09:59:47;3.22;;;0.43;;
74679;SDS011;63211;48.548;2.704;2022-10-16T10:02:16;0.88;;;0.30;;
74679;SDS011;63211;48.548;2.704;2022-10-16T10:04:47;0.40;;;0.30;;
74679;SDS011;63211;48.548;2.704;2022-10-16T10:07:17;0.30;;;0.10;;
74679;SDS011;63211;48.548;2.704;2022-10-16T10:12:20;1.33;;;0.22;;
74679;SDS011;63211;48.548;2.704;2022-10-16T10:14:48;1.45;;;0.20;;
74679;SDS011;63211;48.548;2.704;2022-10-16T10:17:18;1.90;;;0.40;;
74679;SDS011;63211;48.548;2.704;2022-10-16T10:19:51;0.80;;;0.40;;
74679;SDS011;63211;48.548;2.704;2022-10-16T10:22:24;0.47;;;0.10;;
74679;SDS011;63211;48.548;2.704;2022-10-16T10:27:45;0.82;;;0.20;;
74679;SDS011;63211;48.548;2.704;2022-10-16T10:30:27;0.57;;;0.20;;
74679;SDS011;63211;48.548;2.704;2022-10-16T10:33:08;0.65;;;0.20;;
74679;SDS011;63211;48.548;2.704;2022-10-16T10:35:43;0.80;;;0.40;;
74679;SDS011;63211;48.548;2.704;2022-10-16T10:38:18;0.40;;;0.20;;
74679;SDS011;63211;48.548;2.704;2022-10-16T10:40:52;0.70;;;0.35;;
74679;SDS011;63211;48.548;2.704;2022-10-16T10:43:30;0.40;;;0.13;;
74679;SDS011;63211;48.548;2.704;2022-10-16T10:46:08;0.73;;;0.20;;
74679;SDS011;63211;48.548;2.704;2022-10-16T10:51:32;0.50;;;0.30;;
74679;SDS011;63211;48.548;2.704;2022-10-16T10:54:10;0.70;;;0.38;;
74679;SDS011;63211;48.548;2.704;2022-10-16T10:56:44;0.95;;;0.20;;
74679;SDS011;63211;48.548;2.704;2022-10-16T10:59:21;0.70;;;0.20;;
74679;SDS011;63211;48.548;2.704;2022-10-16T11:02:10;0.47;;;0.40;;
74679;SDS011;63211;48.548;2.704;2022-10-16T11:04:49;0.57;;;0.22;;
74679;SDS011;63211;48.548;2.704;2022-10-16T11:07:39;1.60;;;0.20;;
74679;SDS011;63211;48.548;2.704;2022-10-16T11:10:12;0.47;;;0.20;;
74679;SDS011;63211;48.548;2.704;2022-10-16T11:12:42;0.32;;;0.22;;
74679;SDS011;63211;48.548;2.704;2022-10-16T11:15:14;1.08;;;0.22;;
74679;SDS011;63211;48.548;2.704;2022-10-16T11:17:44;1.33;;;0.22;;
74679;SDS011;63211;48.548;2.704;2022-10-16T11:20:20;0.60;;;0.30;;
74679;SDS011;63211;48.548;2.704;2022-10-16T11:22:50;2.28;;;0.32;;
74679;SDS011;63211;48.548;2.704;2022-10-16T11:25:21;1.85;;;0.20;;
74679;SDS011;63211;48.548;2.704;2022-10-16T11:27:52;1.42;;;0.30;;
74679;SDS011;63211;48.548;2.704;2022-10-16T11:30:24;0.55;;;0.30;;
74679;SDS011;63211;48.548;2.704;2022-10-16T11:32:56;1.08;;;0.22;;
74679;SDS011;63211;48.548;2.704;2022-10-16T11:35:38;1.10;;;0.40;;
74679;SDS011;63211;48.548;2.704;2022-10-16T11:38:10;4.03;;;0.38;;
74679;SDS011;63211;48.548;2.704;2022-10-16T11:40:45;3.22;;;0.60;;
74679;SDS011;63211;48.548;2.704;2022-10-16T11:43:17;9.10;;;0.63;;
74679;SDS011;63211;48.548;2.704;2022-10-16T11:45:49;1.02;;;0.30;;
74679;SDS011;63211;48.548;2.704;2022-10-16T11:48:20;1.65;;;0.60;;
74679;SDS011;63211;48.548;2.704;2022-10-16T11:50:55;1.02;;;0.32;;
74679;SDS011;63211;48.548;2.704;2022-10-16T11:53:33;1.88;;;0.40;;
74679;SDS011;63211;48.548;2.704;2022-10-16T11:56:11;0.30;;;0.10;;
74679;SDS011;63211;48.548;2.704;2022-10-16T11:58:40;1.25;;;0.50;;
74679;SDS011;63211;48.548;2.704;2022-10-16T12:01:18;5.25;;;0.40;;
74679;SDS011;63211;48.548;2.704;2022-10-16T12:03:53;0.57;;;0.20;;
74679;SDS011;63211;48.548;2.704;2022-10-16T12:06:33;1.73;;;0.25;;
74679;SDS011;63211;48.548;2.704;2022-10-16T12:09:03;1.63;;;0.60;;
74679;SDS011;63211;48.548;2.704;2022-10-16T12:11:31;2.05;;;0.40;;
74679;SDS011;63211;48.548;2.704;2022-10-16T12:14:05;0.43;;;0.20;;
74679;SDS011;63211;48.548;2.704;2022-10-16T12:16:33;0.60;;;0.30;;
74679;SDS011;63211;48.548;2.704;2022-10-16T12:19:09;0.45;;;0.30;;
74679;SDS011;63211;48.548;2.704;2022-10-16T12:21:40;0.65;;;0.35;;
74679;SDS011;63211;48.548;2.704;2022-10-16T12:24:18;0.77;;;0.35;;
74679;SDS011;63211;48.548;2.704;2022-10-16T12:26:48;1.08;;;0.30;;
74679;SDS011;63211;48.548;2.704;2022-10-16T12:29:22;0.65;;;0.30;;
74679;SDS011;63211;48.548;2.704;2022-10-16T12:31:58;1.17;;;0.50;;
74679;SDS011;63211;48.548;2.704;2022-10-16T12:34:27;1.45;;;0.28;;
74679;SDS011;63211;48.548;2.704;2022-10-16T12:37:06;1.98;;;0.60;;
74679;SDS011;63211;48.548;2.704;2022-10-16T12:39:35;3.15;;;0.50;;
74679;SDS011;63211;48.548;2.704;2022-10-16T12:42:03;0.60;;;0.30;;
74679;SDS011;63211;48.548;2.704;2022-10-16T12:44:32;2.80;;;0.40;;
74679;SDS011;63211;48.548;2.704;2022-10-16T12:46:59;1.30;;;0.40;;
74679;SDS011;63211;48.548;2.704;2022-10-16T12:49:30;2.08;;;0.50;;
74679;SDS011;63211;48.548;2.704;2022-10-16T12:52:00;2.25;;;0.50;;
74679;SDS011;63211;48.548;2.704;2022-10-16T12:54:27;1.35;;;0.65;;
74679;SDS011;63211;48.548;2.704;2022-10-16T12:57:00;0.82;;;0.30;;
74679;SDS011;63211;48.548;2.704;2022-10-16T12:59:42;3.33;;;0.40;;
74679;SDS011;63211;48.548;2.704;2022-10-16T13:02:21;1.40;;;0.50;;
74679;SDS011;63211;48.548;2.704;2022-10-16T13:05:17;4.70;;;0.60;;
74679;SDS011;63211;48.548;2.704;2022-10-16T13:07:56;3.67;;;0.50;;
74679;SDS011;63211;48.548;2.704;2022-10-16T13:10:34;2.45;;;0.65;;
74679;SDS011;63211;48.548;2.704;2022-10-16T13:13:10;4.40;;;0.57;;
74679;SDS011;63211;48.548;2.704;2022-10-16T13:15:53;1.83;;;0.30;;
74679;SDS011;63211;48.548;2.704;2022-10-16T13:18:29;2.45;;;0.57;;
74679;SDS011;63211;48.548;2.704;2022-10-16T13:21:16;1.73;;;0.70;;
74679;SDS011;63211;48.548;2.704;2022-10-16T13:23:54;0.60;;;0.30;;
74679;SDS011;63211;48.548;2.704;2022-10-16T13:26:30;1.23;;;0.60;;
74679;SDS011;63211;48.548;2.704;2022-10-16T13:29:05;4.82;;;0.60;;
74679;SDS011;63211;48.548;2.704;2022-10-16T13:31:32;1.45;;;0.60;;
74679;SDS011;63211;48.548;2.704;2022-10-16T13:33:59;1.45;;;0.70;;
74679;SDS011;63211;48.548;2.704;2022-10-16T13:36:28;0.73;;;0.40;;
74679;SDS011;63211;48.548;2.704;2022-10-16T13:39:10;1.90;;;0.70;;
74679;SDS011;63211;48.548;2.704;2022-10-16T13:41:39;1.17;;;0.55;;
74679;SDS011;63211;48.548;2.704;2022-10-16T13:44:08;3.00;;;0.90;;
74679;SDS011;63211;48.548;2.704;2022-10-16T13:46:41;4.05;;;1.50;;
74679;SDS011;63211;48.548;2.704;2022-10-16T13:49:12;5.30;;;1.45;;
74679;SDS011;63211;48.548;2.704;2022-10-16T13:51:40;2.35;;;1.30;;
74679;SDS011;63211;48.548;2.704;2022-10-16T13:54:10;3.65;;;1.67;;
74679;SDS011;63211;48.548;2.704;2022-10-16T13:56:38;3.42;;;1.73;;
74679;SDS011;63211;48.548;2.704;2022-10-16T13:59:06;5.65;;;2.85;;
74679;SDS011;63211;48.548;2.704;2022-10-16T14:04:15;7.20;;;3.63;;
74679;SDS011;63211;48.548;2.704;2022-10-16T14:06:43;12.85;;;4.03;;
74679;SDS011;63211;48.548;2.704;2022-10-16T14:09:14;12.27;;;4.22;;
74679;SDS011;63211;48.548;2.704;2022-10-16T14:11:48;10.77;;;5.93;;
74679;SDS011;63211;48.548;2.704;2022-10-16T14:14:17;10.60;;;5.97;;
74679;SDS011;63211;48.548;2.704;2022-10-16T14:16:44;12.55;;;6.22;;
74679;SDS011;63211;48.548;2.704;2022-10-16T14:19:17;11.77;;;6.45;;
74679;SDS011;63211;48.548;2.704;2022-10-16T14:21:46;11.60;;;6.75;;
74679;SDS011;63211;48.548;2.704;2022-10-16T14:24:21;12.13;;;6.85;;
74679;SDS011;63211;48.548;2.704;2022-10-16T14:26:52;13.45;;;7.18;;
74679;SDS011;63211;48.548;2.704;2022-10-16T14:29:20;11.77;;;6.38;;
74679;SDS011;63211;48.548;2.704;2022-10-16T14:31:53;15.15;;;7.82;;
74679;SDS011;63211;48.548;2.704;2022-10-16T14:34:23;14.93;;;7.22;;
74679;SDS011;63211;48.548;2.704;2022-10-16T14:36:52;10.80;;;6.68;;
74679;SDS011;63211;48.548;2.704;2022-10-16T14:39:21;13.27;;;6.95;;
74679;SDS011;63211;48.548;2.704;2022-10-16T14:41:50;14.98;;;7.13;;
74679;SDS011;63211;48.548;2.704;2022-10-16T14:44:22;14.93;;;6.70;;
74679;SDS011;63211;48.548;2.704;2022-10-16T14:46:54;15.60;;;6.93;;
74679;SDS011;63211;48.548;2.704;2022-10-16T14:49:21;13.15;;;6.10;;
74679;SDS011;63211;48.548;2.704;2022-10-16T14:51:49;13.10;;;6.43;;
74679;SDS011;63211;48.548;2.704;2022-10-16T14:54:17;12.98;;;6.15;;
74679;SDS011;63211;48.548;2.704;2022-10-16T14:56:47;12.55;;;6.40;;
74679;SDS011;63211;48.548;2.704;2022-10-16T14:59:17;15.73;;;6.90;;
74679;SDS011;63211;48.548;2.704;2022-10-16T15:01:48;12.07;;;6.55;;
74679;SDS011;63211;48.548;2.704;2022-10-16T15:04:14;12.77;;;6.93;;
74679;SDS011;63211;48.548;2.704;2022-10-16T15:06:42;11.98;;;5.95;;
74679;SDS011;63211;48.548;2.704;2022-10-16T15:09:09;11.05;;;5.82;;
74679;SDS011;63211;48.548;2.704;2022-10-16T15:11:36;11.23;;;5.88;;
74679;SDS011;63211;48.548;2.704;2022-10-16T15:14:04;10.82;;;5.38;;
74679;SDS011;63211;48.548;2.704;2022-10-16T15:16:31;10.93;;;5.93;;
74679;SDS011;63211;48.548;2.704;2022-10-16T15:18:57;10.38;;;5.90;;